sensor_id;sensor_type;location;lat;lon;timestamp;P1;durP1;ratioP1;P2;durP2;ratioP2
77304;SDS011;66364;52.622;7.746;2023-06-22T00:01:21;18.32;;;16.55;;
77304;SDS011;66364;52.622;7.746;2023-06-22T00:03:24;17.25;;;15.63;;
77304;SDS011;66364;52.622;7.746;2023-06-22T00:05:26;17.48;;;15.98;;
77304;SDS011;66364;52.622;7.746;2023-06-22T00:07:29;18.98;;;17.23;;
77304;SDS011;66364;52.622;7.746;2023-06-22T00:09:32;17.60;;;16.07;;
77304;SDS011;66364;52.622;7.746;2023-06-22T00:11:34;17.12;;;15.55;;
77304;SDS011;66364;52.622;7.746;2023-06-22T00:13:37;18.75;;;16.80;;
77304;SDS011;66364;52.622;7.746;2023-06-22T00:15:40;18.82;;;17.00;;
77304;SDS011;66364;52.622;7.746;2023-06-22T00:17:45;19.35;;;17.70;;
77304;SDS011;66364;52.622;7.746;2023-06-22T00:19:48;18.37;;;16.67;;
77304;SDS011;66364;52.622;7.746;2023-06-22T00:21:50;18.42;;;16.65;;
77304;SDS011;66364;52.622;7.746;2023-06-22T00:23:53;19.62;;;17.80;;
77304;SDS011;66364;52.622;7.746;2023-06-22T00:25:56;20.10;;;18.07;;
77304;SDS011;66364;52.622;7.746;2023-06-22T00:27:58;19.32;;;17.62;;
77304;SDS011;66364;52.622;7.746;2023-06-22T00:30:01;20.20;;;18.20;;
77304;SDS011;66364;52.622;7.746;2023-06-22T00:32:05;19.05;;;17.10;;
77304;SDS011;66364;52.622;7.746;2023-06-22T00:34:08;19.55;;;17.75;;
77304;SDS011;66364;52.622;7.746;2023-06-22T00:36:11;19.62;;;17.73;;
77304;SDS011;66364;52.622;7.746;2023-06-22T00:38:14;21.33;;;19.42;;
77304;SDS011;66364;52.622;7.746;2023-06-22T00:40:16;19.55;;;17.75;;
77304;SDS011;66364;52.622;7.746;2023-06-22T00:42:19;21.40;;;19.15;;
77304;SDS011;66364;52.622;7.746;2023-06-22T00:44:22;19.85;;;18.02;;
77304;SDS011;66364;52.622;7.746;2023-06-22T00:46:24;20.00;;;18.20;;
77304;SDS011;66364;52.622;7.746;2023-06-22T00:48:27;20.12;;;18.12;;
77304;SDS011;66364;52.622;7.746;2023-06-22T00:50:31;18.87;;;17.15;;
77304;SDS011;66364;52.622;7.746;2023-06-22T00:52:35;19.20;;;17.30;;
77304;SDS011;66364;52.622;7.746;2023-06-22T00:54:38;19.32;;;17.42;;
77304;SDS011;66364;52.622;7.746;2023-06-22T00:56:41;19.23;;;17.45;;
77304;SDS011;66364;52.622;7.746;2023-06-22T00:58:44;19.48;;;17.67;;
77304;SDS011;66364;52.622;7.746;2023-06-22T01:00:48;19.30;;;17.48;;
77304;SDS011;66364;52.622;7.746;2023-06-22T01:02:51;19.92;;;18.10;;
77304;SDS011;66364;52.622;7.746;2023-06-22T01:04:54;17.50;;;15.83;;
77304;SDS011;66364;52.622;7.746;2023-06-22T01:07:03;19.17;;;17.45;;
77304;SDS011;66364;52.622;7.746;2023-06-22T01:09:15;20.45;;;18.45;;
77304;SDS011;66364;52.622;7.746;2023-06-22T01:13:29;20.37;;;18.55;;
77304;SDS011;66364;52.622;7.746;2023-06-22T01:15:38;20.32;;;18.32;;
77304;SDS011;66364;52.622;7.746;2023-06-22T01:17:49;22.25;;;20.23;;
77304;SDS011;66364;52.622;7.746;2023-06-22T01:19:54;20.75;;;18.82;;
77304;SDS011;66364;52.622;7.746;2023-06-22T01:21:58;21.30;;;19.42;;
77304;SDS011;66364;52.622;7.746;2023-06-22T01:26:20;20.92;;;18.80;;
77304;SDS011;66364;52.622;7.746;2023-06-22T01:30:51;23.45;;;21.35;;
77304;SDS011;66364;52.622;7.746;2023-06-22T01:33:00;24.00;;;21.70;;
77304;SDS011;66364;52.622;7.746;2023-06-22T01:35:07;24.43;;;22.20;;
77304;SDS011;66364;52.622;7.746;2023-06-22T01:37:10;25.75;;;23.20;;
77304;SDS011;66364;52.622;7.746;2023-06-22T01:39:14;26.55;;;24.02;;
77304;SDS011;66364;52.622;7.746;2023-06-22T01:41:18;25.65;;;23.25;;
77304;SDS011;66364;52.622;7.746;2023-06-22T01:43:22;27.62;;;25.05;;
77304;SDS011;66364;52.622;7.746;2023-06-22T01:45:27;26.05;;;23.55;;
77304;SDS011;66364;52.622;7.746;2023-06-22T01:47:30;26.17;;;23.67;;
77304;SDS011;66364;52.622;7.746;2023-06-22T01:49:34;24.80;;;22.55;;
77304;SDS011;66364;52.622;7.746;2023-06-22T01:51:37;24.57;;;22.20;;
77304;SDS011;66364;52.622;7.746;2023-06-22T01:53:39;25.45;;;23.12;;
77304;SDS011;66364;52.622;7.746;2023-06-22T01:55:42;25.77;;;23.30;;
77304;SDS011;66364;52.622;7.746;2023-06-22T01:57:45;24.25;;;21.85;;
77304;SDS011;66364;52.622;7.746;2023-06-22T02:00:09;27.85;;;25.02;;
77304;SDS011;66364;52.622;7.746;2023-06-22T02:02:10;27.22;;;24.82;;
77304;SDS011;66364;52.622;7.746;2023-06-22T02:04:22;26.33;;;23.73;;
77304;SDS011;66364;52.622;7.746;2023-06-22T02:06:35;24.15;;;21.68;;
77304;SDS011;66364;52.622;7.746;2023-06-22T02:08:36;25.82;;;23.32;;
77304;SDS011;66364;52.622;7.746;2023-06-22T02:10:40;26.37;;;23.87;;
77304;SDS011;66364;52.622;7.746;2023-06-22T02:12:45;24.65;;;22.45;;
77304;SDS011;66364;52.622;7.746;2023-06-22T02:14:50;26.48;;;24.05;;
77304;SDS011;66364;52.622;7.746;2023-06-22T02:16:54;26.97;;;24.43;;
77304;SDS011;66364;52.622;7.746;2023-06-22T02:18:57;26.90;;;24.27;;
77304;SDS011;66364;52.622;7.746;2023-06-22T02:21:01;27.70;;;25.20;;
77304;SDS011;66364;52.622;7.746;2023-06-22T02:23:05;26.75;;;24.10;;
77304;SDS011;66364;52.622;7.746;2023-06-22T02:25:08;28.35;;;25.72;;
77304;SDS011;66364;52.622;7.746;2023-06-22T02:27:11;29.20;;;26.20;;
77304;SDS011;66364;52.622;7.746;2023-06-22T02:29:13;28.73;;;26.17;;
77304;SDS011;66364;52.622;7.746;2023-06-22T02:31:16;31.55;;;28.47;;
77304;SDS011;66364;52.622;7.746;2023-06-22T02:33:19;29.80;;;27.00;;
77304;SDS011;66364;52.622;7.746;2023-06-22T02:35:22;29.90;;;27.07;;
77304;SDS011;66364;52.622;7.746;2023-06-22T02:37:25;28.83;;;26.12;;
77304;SDS011;66364;52.622;7.746;2023-06-22T02:39:27;28.15;;;25.45;;
77304;SDS011;66364;52.622;7.746;2023-06-22T02:41:31;29.00;;;26.33;;
77304;SDS011;66364;52.622;7.746;2023-06-22T02:43:34;28.30;;;25.60;;
77304;SDS011;66364;52.622;7.746;2023-06-22T02:45:36;33.05;;;29.85;;
77304;SDS011;66364;52.622;7.746;2023-06-22T02:47:39;30.10;;;27.27;;
77304;SDS011;66364;52.622;7.746;2023-06-22T02:49:42;29.30;;;26.25;;
77304;SDS011;66364;52.622;7.746;2023-06-22T02:51:45;29.95;;;27.10;;
77304;SDS011;66364;52.622;7.746;2023-06-22T02:53:49;31.17;;;28.27;;
77304;SDS011;66364;52.622;7.746;2023-06-22T02:55:51;29.32;;;26.50;;
77304;SDS011;66364;52.622;7.746;2023-06-22T02:57:54;30.05;;;27.30;;
77304;SDS011;66364;52.622;7.746;2023-06-22T02:59:57;32.33;;;29.35;;
77304;SDS011;66364;52.622;7.746;2023-06-22T03:01:59;31.30;;;28.40;;
77304;SDS011;66364;52.622;7.746;2023-06-22T03:04:02;29.02;;;26.52;;
77304;SDS011;66364;52.622;7.746;2023-06-22T03:06:12;29.70;;;26.90;;
77304;SDS011;66364;52.622;7.746;2023-06-22T03:08:15;28.75;;;25.95;;
77304;SDS011;66364;52.622;7.746;2023-06-22T03:10:18;28.10;;;25.17;;
77304;SDS011;66364;52.622;7.746;2023-06-22T03:12:20;32.28;;;29.02;;
77304;SDS011;66364;52.622;7.746;2023-06-22T03:14:23;29.87;;;27.07;;
77304;SDS011;66364;52.622;7.746;2023-06-22T03:16:26;29.98;;;26.85;;
77304;SDS011;66364;52.622;7.746;2023-06-22T03:18:29;28.62;;;25.95;;
77304;SDS011;66364;52.622;7.746;2023-06-22T03:20:31;28.60;;;25.65;;
77304;SDS011;66364;52.622;7.746;2023-06-22T03:22:37;28.20;;;25.60;;
77304;SDS011;66364;52.622;7.746;2023-06-22T03:24:41;28.00;;;25.30;;
77304;SDS011;66364;52.622;7.746;2023-06-22T03:26:44;30.50;;;27.73;;
77304;SDS011;66364;52.622;7.746;2023-06-22T03:28:46;28.60;;;25.80;;
77304;SDS011;66364;52.622;7.746;2023-06-22T03:30:49;33.00;;;26.35;;
77304;SDS011;66364;52.622;7.746;2023-06-22T03:32:52;33.18;;;30.08;;
77304;SDS011;66364;52.622;7.746;2023-06-22T03:34:54;28.45;;;25.65;;
77304;SDS011;66364;52.622;7.746;2023-06-22T03:36:57;31.68;;;28.47;;
77304;SDS011;66364;52.622;7.746;2023-06-22T03:39:00;32.25;;;28.77;;
77304;SDS011;66364;52.622;7.746;2023-06-22T03:41:02;27.07;;;24.37;;
77304;SDS011;66364;52.622;7.746;2023-06-22T03:43:05;31.75;;;28.55;;
77304;SDS011;66364;52.622;7.746;2023-06-22T03:45:08;31.45;;;28.15;;
77304;SDS011;66364;52.622;7.746;2023-06-22T03:47:11;31.82;;;28.67;;
77304;SDS011;66364;52.622;7.746;2023-06-22T03:49:18;29.63;;;26.80;;
77304;SDS011;66364;52.622;7.746;2023-06-22T03:51:20;32.85;;;29.72;;
77304;SDS011;66364;52.622;7.746;2023-06-22T03:53:23;32.73;;;29.57;;
77304;SDS011;66364;52.622;7.746;2023-06-22T03:55:26;35.15;;;31.65;;
77304;SDS011;66364;52.622;7.746;2023-06-22T03:57:29;30.88;;;27.87;;
77304;SDS011;66364;52.622;7.746;2023-06-22T03:59:31;33.42;;;30.12;;
77304;SDS011;66364;52.622;7.746;2023-06-22T04:01:35;30.45;;;27.55;;
77304;SDS011;66364;52.622;7.746;2023-06-22T04:03:38;31.55;;;28.47;;
77304;SDS011;66364;52.622;7.746;2023-06-22T04:05:41;35.05;;;31.35;;
77304;SDS011;66364;52.622;7.746;2023-06-22T04:07:44;32.60;;;29.60;;
77304;SDS011;66364;52.622;7.746;2023-06-22T04:09:54;33.25;;;30.02;;
77304;SDS011;66364;52.622;7.746;2023-06-22T04:11:57;32.03;;;28.95;;
77304;SDS011;66364;52.622;7.746;2023-06-22T04:14:00;32.63;;;29.63;;
77304;SDS011;66364;52.622;7.746;2023-06-22T04:16:02;34.23;;;30.80;;
77304;SDS011;66364;52.622;7.746;2023-06-22T04:18:05;35.85;;;32.10;;
77304;SDS011;66364;52.622;7.746;2023-06-22T04:20:08;33.92;;;30.65;;
77304;SDS011;66364;52.622;7.746;2023-06-22T04:22:11;36.08;;;32.30;;
77304;SDS011;66364;52.622;7.746;2023-06-22T04:24:14;35.50;;;29.92;;
77304;SDS011;66364;52.622;7.746;2023-06-22T04:26:24;34.23;;;30.82;;
77304;SDS011;66364;52.622;7.746;2023-06-22T04:28:26;32.40;;;29.30;;
77304;SDS011;66364;52.622;7.746;2023-06-22T04:30:29;34.38;;;31.07;;
77304;SDS011;66364;52.622;7.746;2023-06-22T04:32:35;33.20;;;29.80;;
77304;SDS011;66364;52.622;7.746;2023-06-22T04:34:38;34.98;;;31.27;;
77304;SDS011;66364;52.622;7.746;2023-06-22T04:36:40;38.48;;;34.53;;
77304;SDS011;66364;52.622;7.746;2023-06-22T04:38:54;36.15;;;32.50;;
77304;SDS011;66364;52.622;7.746;2023-06-22T04:40:57;36.20;;;32.50;;
77304;SDS011;66364;52.622;7.746;2023-06-22T04:43:00;34.85;;;31.25;;
77304;SDS011;66364;52.622;7.746;2023-06-22T04:45:03;36.85;;;33.15;;
77304;SDS011;66364;52.622;7.746;2023-06-22T04:47:06;35.55;;;31.85;;
77304;SDS011;66364;52.622;7.746;2023-06-22T04:49:09;36.50;;;32.65;;
77304;SDS011;66364;52.622;7.746;2023-06-22T04:51:12;34.63;;;31.15;;
77304;SDS011;66364;52.622;7.746;2023-06-22T04:53:14;36.17;;;32.58;;
77304;SDS011;66364;52.622;7.746;2023-06-22T04:55:17;33.05;;;29.75;;
77304;SDS011;66364;52.622;7.746;2023-06-22T04:57:22;34.78;;;31.42;;
77304;SDS011;66364;52.622;7.746;2023-06-22T04:59:28;35.05;;;30.65;;
77304;SDS011;66364;52.622;7.746;2023-06-22T05:01:32;35.23;;;31.80;;
77304;SDS011;66364;52.622;7.746;2023-06-22T05:03:35;35.40;;;32.00;;
77304;SDS011;66364;52.622;7.746;2023-06-22T05:05:38;34.95;;;31.55;;
77304;SDS011;66364;52.622;7.746;2023-06-22T05:07:44;32.83;;;29.70;;
77304;SDS011;66364;52.622;7.746;2023-06-22T05:09:54;33.58;;;30.27;;
77304;SDS011;66364;52.622;7.746;2023-06-22T05:11:57;33.42;;;30.20;;
77304;SDS011;66364;52.622;7.746;2023-06-22T05:14:15;32.70;;;29.63;;
77304;SDS011;66364;52.622;7.746;2023-06-22T05:16:18;31.35;;;28.25;;
77304;SDS011;66364;52.622;7.746;2023-06-22T05:18:21;30.32;;;27.30;;
77304;SDS011;66364;52.622;7.746;2023-06-22T05:20:23;32.70;;;29.32;;
77304;SDS011;66364;52.622;7.746;2023-06-22T05:22:32;31.10;;;28.15;;
77304;SDS011;66364;52.622;7.746;2023-06-22T05:24:35;32.53;;;29.32;;
77304;SDS011;66364;52.622;7.746;2023-06-22T05:26:38;31.73;;;28.70;;
77304;SDS011;66364;52.622;7.746;2023-06-22T05:28:42;30.60;;;27.60;;
77304;SDS011;66364;52.622;7.746;2023-06-22T05:30:45;31.20;;;28.07;;
77304;SDS011;66364;52.622;7.746;2023-06-22T05:32:48;29.77;;;26.93;;
77304;SDS011;66364;52.622;7.746;2023-06-22T05:34:50;32.78;;;29.60;;
77304;SDS011;66364;52.622;7.746;2023-06-22T05:36:53;30.52;;;27.48;;
77304;SDS011;66364;52.622;7.746;2023-06-22T05:38:56;31.35;;;28.38;;
77304;SDS011;66364;52.622;7.746;2023-06-22T05:40:59;28.30;;;25.45;;
77304;SDS011;66364;52.622;7.746;2023-06-22T05:43:02;30.30;;;27.40;;
77304;SDS011;66364;52.622;7.746;2023-06-22T05:45:05;29.92;;;27.02;;
77304;SDS011;66364;52.622;7.746;2023-06-22T05:47:08;28.55;;;25.82;;
77304;SDS011;66364;52.622;7.746;2023-06-22T05:49:11;29.32;;;26.73;;
77304;SDS011;66364;52.622;7.746;2023-06-22T05:51:14;27.62;;;25.10;;
77304;SDS011;66364;52.622;7.746;2023-06-22T05:53:17;28.85;;;26.15;;
77304;SDS011;66364;52.622;7.746;2023-06-22T05:55:20;27.27;;;24.67;;
77304;SDS011;66364;52.622;7.746;2023-06-22T05:57:22;27.15;;;24.65;;
77304;SDS011;66364;52.622;7.746;2023-06-22T05:59:25;24.45;;;22.05;;
77304;SDS011;66364;52.622;7.746;2023-06-22T06:01:28;26.07;;;23.57;;
77304;SDS011;66364;52.622;7.746;2023-06-22T06:03:30;23.85;;;21.75;;
77304;SDS011;66364;52.622;7.746;2023-06-22T06:05:33;23.42;;;21.30;;
77304;SDS011;66364;52.622;7.746;2023-06-22T06:07:36;26.10;;;23.52;;
77304;SDS011;66364;52.622;7.746;2023-06-22T06:09:39;22.17;;;20.10;;
77304;SDS011;66364;52.622;7.746;2023-06-22T06:11:42;23.00;;;20.75;;
77304;SDS011;66364;52.622;7.746;2023-06-22T06:13:44;21.05;;;18.95;;
77304;SDS011;66364;52.622;7.746;2023-06-22T06:15:47;20.05;;;18.32;;
77304;SDS011;66364;52.622;7.746;2023-06-22T06:17:50;22.25;;;20.08;;
77304;SDS011;66364;52.622;7.746;2023-06-22T06:19:54;19.42;;;17.62;;
77304;SDS011;66364;52.622;7.746;2023-06-22T06:21:57;21.50;;;19.23;;
77304;SDS011;66364;52.622;7.746;2023-06-22T06:23:59;19.40;;;17.57;;
77304;SDS011;66364;52.622;7.746;2023-06-22T06:26:02;21.00;;;19.25;;
77304;SDS011;66364;52.622;7.746;2023-06-22T06:28:05;19.50;;;17.50;;
77304;SDS011;66364;52.622;7.746;2023-06-22T06:30:08;19.42;;;17.62;;
77304;SDS011;66364;52.622;7.746;2023-06-22T06:32:11;18.80;;;16.57;;
77304;SDS011;66364;52.622;7.746;2023-06-22T06:34:14;17.30;;;15.70;;
77304;SDS011;66364;52.622;7.746;2023-06-22T06:36:15;18.12;;;16.35;;
77304;SDS011;66364;52.622;7.746;2023-06-22T06:38:16;15.75;;;14.45;;
77304;SDS011;66364;52.622;7.746;2023-06-22T06:40:17;17.48;;;15.68;;
77304;SDS011;66364;52.622;7.746;2023-06-22T06:42:20;16.12;;;14.03;;
77304;SDS011;66364;52.622;7.746;2023-06-22T06:44:22;17.05;;;15.43;;
77304;SDS011;66364;52.622;7.746;2023-06-22T06:46:23;15.30;;;14.00;;
77304;SDS011;66364;52.622;7.746;2023-06-22T06:48:25;15.28;;;13.88;;
77304;SDS011;66364;52.622;7.746;2023-06-22T06:50:27;16.75;;;15.23;;
77304;SDS011;66364;52.622;7.746;2023-06-22T06:52:28;16.75;;;12.60;;
77304;SDS011;66364;52.622;7.746;2023-06-22T06:54:29;15.58;;;13.80;;
77304;SDS011;66364;52.622;7.746;2023-06-22T06:56:30;14.10;;;12.80;;
77304;SDS011;66364;52.622;7.746;2023-06-22T06:58:31;13.83;;;12.57;;
77304;SDS011;66364;52.622;7.746;2023-06-22T07:00:32;13.73;;;12.53;;
77304;SDS011;66364;52.622;7.746;2023-06-22T07:02:34;13.40;;;12.23;;
77304;SDS011;66364;52.622;7.746;2023-06-22T07:04:35;11.43;;;10.32;;
77304;SDS011;66364;52.622;7.746;2023-06-22T07:06:36;13.33;;;12.17;;
77304;SDS011;66364;52.622;7.746;2023-06-22T07:08:37;13.90;;;12.50;;
77304;SDS011;66364;52.622;7.746;2023-06-22T07:10:38;13.30;;;11.50;;
77304;SDS011;66364;52.622;7.746;2023-06-22T07:12:39;13.18;;;11.97;;
77304;SDS011;66364;52.622;7.746;2023-06-22T07:14:40;12.67;;;10.83;;
77304;SDS011;66364;52.622;7.746;2023-06-22T07:16:42;12.70;;;11.57;;
77304;SDS011;66364;52.622;7.746;2023-06-22T07:18:43;13.10;;;11.83;;
77304;SDS011;66364;52.622;7.746;2023-06-22T07:20:44;12.47;;;11.17;;
77304;SDS011;66364;52.622;7.746;2023-06-22T07:22:47;10.72;;;9.83;;
77304;SDS011;66364;52.622;7.746;2023-06-22T07:24:47;11.70;;;10.70;;
77304;SDS011;66364;52.622;7.746;2023-06-22T07:26:48;10.20;;;9.30;;
77304;SDS011;66364;52.622;7.746;2023-06-22T07:28:50;10.98;;;9.90;;
77304;SDS011;66364;52.622;7.746;2023-06-22T07:30:51;9.60;;;8.70;;
77304;SDS011;66364;52.622;7.746;2023-06-22T07:32:52;10.48;;;9.58;;
77304;SDS011;66364;52.622;7.746;2023-06-22T07:34:53;11.53;;;10.47;;
77304;SDS011;66364;52.622;7.746;2023-06-22T07:36:54;9.63;;;7.65;;
77304;SDS011;66364;52.622;7.746;2023-06-22T07:38:55;9.73;;;8.60;;
77304;SDS011;66364;52.622;7.746;2023-06-22T07:40:55;10.03;;;8.80;;
77304;SDS011;66364;52.622;7.746;2023-06-22T07:42:56;9.87;;;8.60;;
77304;SDS011;66364;52.622;7.746;2023-06-22T07:44:57;9.00;;;8.20;;
77304;SDS011;66364;52.622;7.746;2023-06-22T07:46:58;8.90;;;8.00;;
77304;SDS011;66364;52.622;7.746;2023-06-22T07:48:59;14.20;;;8.53;;
77304;SDS011;66364;52.622;7.746;2023-06-22T07:51:00;8.07;;;7.23;;
77304;SDS011;66364;52.622;7.746;2023-06-22T07:53:01;9.23;;;7.73;;
77304;SDS011;66364;52.622;7.746;2023-06-22T07:55:02;8.20;;;7.03;;
77304;SDS011;66364;52.622;7.746;2023-06-22T07:57:03;7.78;;;6.97;;
77304;SDS011;66364;52.622;7.746;2023-06-22T07:59:04;7.17;;;6.47;;
77304;SDS011;66364;52.622;7.746;2023-06-22T08:01:05;7.97;;;7.17;;
77304;SDS011;66364;52.622;7.746;2023-06-22T08:03:06;7.70;;;6.65;;
77304;SDS011;66364;52.622;7.746;2023-06-22T08:05:08;7.17;;;6.58;;
77304;SDS011;66364;52.622;7.746;2023-06-22T08:07:10;6.42;;;5.83;;
77304;SDS011;66364;52.622;7.746;2023-06-22T08:09:11;8.43;;;6.60;;
77304;SDS011;66364;52.622;7.746;2023-06-22T08:11:12;7.40;;;6.50;;
77304;SDS011;66364;52.622;7.746;2023-06-22T08:13:13;7.23;;;6.23;;
77304;SDS011;66364;52.622;7.746;2023-06-22T08:15:13;7.70;;;6.73;;
77304;SDS011;66364;52.622;7.746;2023-06-22T08:17:15;7.30;;;6.60;;
77304;SDS011;66364;52.622;7.746;2023-06-22T08:19:16;8.27;;;7.50;;
77304;SDS011;66364;52.622;7.746;2023-06-22T08:21:17;8.53;;;7.80;;
77304;SDS011;66364;52.622;7.746;2023-06-22T08:23:18;8.20;;;7.50;;
77304;SDS011;66364;52.622;7.746;2023-06-22T08:25:19;7.50;;;6.80;;
77304;SDS011;66364;52.622;7.746;2023-06-22T08:27:21;7.50;;;6.80;;
77304;SDS011;66364;52.622;7.746;2023-06-22T08:29:22;7.28;;;6.58;;
77304;SDS011;66364;52.622;7.746;2023-06-22T08:31:23;8.70;;;7.63;;
77304;SDS011;66364;52.622;7.746;2023-06-22T08:33:24;8.30;;;7.57;;
77304;SDS011;66364;52.622;7.746;2023-06-22T08:35:25;6.83;;;6.23;;
77304;SDS011;66364;52.622;7.746;2023-06-22T08:37:26;6.70;;;6.10;;
77304;SDS011;66364;52.622;7.746;2023-06-22T08:39:27;7.13;;;6.53;;
77304;SDS011;66364;52.622;7.746;2023-06-22T08:41:28;7.97;;;7.17;;
77304;SDS011;66364;52.622;7.746;2023-06-22T08:43:29;8.30;;;7.60;;
77304;SDS011;66364;52.622;7.746;2023-06-22T08:45:30;8.17;;;7.20;;
77304;SDS011;66364;52.622;7.746;2023-06-22T08:47:32;7.80;;;7.10;;
77304;SDS011;66364;52.622;7.746;2023-06-22T08:49:35;8.03;;;7.22;;
77304;SDS011;66364;52.622;7.746;2023-06-22T08:51:37;8.60;;;7.90;;
77304;SDS011;66364;52.622;7.746;2023-06-22T08:53:40;7.50;;;6.90;;
77304;SDS011;66364;52.622;7.746;2023-06-22T08:55:43;8.25;;;7.60;;
77304;SDS011;66364;52.622;7.746;2023-06-22T08:57:44;8.37;;;7.60;;
77304;SDS011;66364;52.622;7.746;2023-06-22T08:59:45;8.37;;;7.67;;
77304;SDS011;66364;52.622;7.746;2023-06-22T09:01:47;8.63;;;7.20;;
77304;SDS011;66364;52.622;7.746;2023-06-22T09:03:48;8.63;;;7.92;;
77304;SDS011;66364;52.622;7.746;2023-06-22T09:05:50;10.15;;;9.33;;
77304;SDS011;66364;52.622;7.746;2023-06-22T09:07:51;8.73;;;7.80;;
77304;SDS011;66364;52.622;7.746;2023-06-22T09:09:59;8.70;;;8.00;;
77304;SDS011;66364;52.622;7.746;2023-06-22T09:12:01;12.18;;;10.13;;
77304;SDS011;66364;52.622;7.746;2023-06-22T09:14:02;8.80;;;8.00;;
77304;SDS011;66364;52.622;7.746;2023-06-22T09:16:03;10.10;;;9.30;;
77304;SDS011;66364;52.622;7.746;2023-06-22T09:18:05;10.18;;;9.28;;
77304;SDS011;66364;52.622;7.746;2023-06-22T09:20:07;10.65;;;9.75;;
77304;SDS011;66364;52.622;7.746;2023-06-22T09:22:09;10.48;;;9.45;;
77304;SDS011;66364;52.622;7.746;2023-06-22T09:24:11;9.60;;;8.70;;
77304;SDS011;66364;52.622;7.746;2023-06-22T09:26:12;10.60;;;9.57;;
77304;SDS011;66364;52.622;7.746;2023-06-22T09:28:14;11.60;;;10.18;;
77304;SDS011;66364;52.622;7.746;2023-06-22T09:30:15;9.77;;;8.93;;
77304;SDS011;66364;52.622;7.746;2023-06-22T09:32:16;10.40;;;9.30;;
77304;SDS011;66364;52.622;7.746;2023-06-22T09:34:18;10.40;;;9.50;;
77304;SDS011;66364;52.622;7.746;2023-06-22T09:36:19;11.08;;;9.48;;
77304;SDS011;66364;52.622;7.746;2023-06-22T09:38:23;10.40;;;9.50;;
77304;SDS011;66364;52.622;7.746;2023-06-22T09:40:24;9.13;;;8.20;;
77304;SDS011;66364;52.622;7.746;2023-06-22T09:42:25;9.35;;;8.45;;
77304;SDS011;66364;52.622;7.746;2023-06-22T09:44:26;10.40;;;9.33;;
77304;SDS011;66364;52.622;7.746;2023-06-22T09:46:28;11.55;;;10.55;;
77304;SDS011;66364;52.622;7.746;2023-06-22T09:48:30;10.82;;;9.88;;
77304;SDS011;66364;52.622;7.746;2023-06-22T09:50:32;10.75;;;9.75;;
77304;SDS011;66364;52.622;7.746;2023-06-22T09:52:33;10.40;;;9.53;;
77304;SDS011;66364;52.622;7.746;2023-06-22T09:54:34;10.57;;;9.57;;
77304;SDS011;66364;52.622;7.746;2023-06-22T09:56:36;9.73;;;8.75;;
77304;SDS011;66364;52.622;7.746;2023-06-22T09:58:37;10.17;;;9.10;;
77304;SDS011;66364;52.622;7.746;2023-06-22T10:00:39;11.20;;;10.13;;
77304;SDS011;66364;52.622;7.746;2023-06-22T10:02:40;9.67;;;8.87;;
77304;SDS011;66364;52.622;7.746;2023-06-22T10:04:42;12.23;;;11.07;;
77304;SDS011;66364;52.622;7.746;2023-06-22T10:06:44;9.70;;;8.90;;
77304;SDS011;66364;52.622;7.746;2023-06-22T10:08:45;12.57;;;11.47;;
77304;SDS011;66364;52.622;7.746;2023-06-22T10:10:46;11.80;;;10.80;;
77304;SDS011;66364;52.622;7.746;2023-06-22T10:12:55;12.43;;;11.13;;
77304;SDS011;66364;52.622;7.746;2023-06-22T10:14:58;10.95;;;10.05;;
77304;SDS011;66364;52.622;7.746;2023-06-22T10:17:00;11.37;;;10.27;;
77304;SDS011;66364;52.622;7.746;2023-06-22T10:19:02;12.93;;;11.70;;
77304;SDS011;66364;52.622;7.746;2023-06-22T10:21:04;10.77;;;9.90;;
77304;SDS011;66364;52.622;7.746;2023-06-22T10:23:05;12.70;;;11.60;;
77304;SDS011;66364;52.622;7.746;2023-06-22T10:25:07;10.97;;;9.87;;
77304;SDS011;66364;52.622;7.746;2023-06-22T10:27:08;13.70;;;12.50;;
77304;SDS011;66364;52.622;7.746;2023-06-22T10:29:10;11.70;;;10.58;;
77304;SDS011;66364;52.622;7.746;2023-06-22T10:31:11;11.03;;;10.03;;
77304;SDS011;66364;52.622;7.746;2023-06-22T10:33:11;12.87;;;11.63;;
77304;SDS011;66364;52.622;7.746;2023-06-22T10:35:14;13.60;;;12.37;;
77304;SDS011;66364;52.622;7.746;2023-06-22T10:37:16;11.67;;;10.57;;
77304;SDS011;66364;52.622;7.746;2023-06-22T10:39:18;11.10;;;10.10;;
77304;SDS011;66364;52.622;7.746;2023-06-22T10:41:20;13.75;;;12.45;;
77304;SDS011;66364;52.622;7.746;2023-06-22T10:43:22;11.43;;;10.38;;
77304;SDS011;66364;52.622;7.746;2023-06-22T10:45:22;13.03;;;11.83;;
77304;SDS011;66364;52.622;7.746;2023-06-22T10:47:23;10.77;;;9.87;;
77304;SDS011;66364;52.622;7.746;2023-06-22T10:49:25;11.73;;;10.60;;
77304;SDS011;66364;52.622;7.746;2023-06-22T10:51:26;12.03;;;10.93;;
77304;SDS011;66364;52.622;7.746;2023-06-22T10:53:28;12.30;;;10.43;;
77304;SDS011;66364;52.622;7.746;2023-06-22T10:55:29;11.40;;;10.40;;
77304;SDS011;66364;52.622;7.746;2023-06-22T10:57:32;12.10;;;11.05;;
77304;SDS011;66364;52.622;7.746;2023-06-22T10:59:33;13.47;;;12.30;;
77304;SDS011;66364;52.622;7.746;2023-06-22T11:01:34;13.28;;;11.88;;
77304;SDS011;66364;52.622;7.746;2023-06-22T11:03:35;13.58;;;12.28;;
77304;SDS011;66364;52.622;7.746;2023-06-22T11:05:45;12.73;;;11.45;;
77304;SDS011;66364;52.622;7.746;2023-06-22T11:07:47;13.38;;;12.18;;
77304;SDS011;66364;52.622;7.746;2023-06-22T11:09:58;13.25;;;12.07;;
77304;SDS011;66364;52.622;7.746;2023-06-22T11:12:00;13.13;;;11.83;;
77304;SDS011;66364;52.622;7.746;2023-06-22T11:14:02;11.25;;;10.25;;
77304;SDS011;66364;52.622;7.746;2023-06-22T11:16:04;12.10;;;11.03;;
77304;SDS011;66364;52.622;7.746;2023-06-22T11:18:05;11.65;;;10.55;;
77304;SDS011;66364;52.622;7.746;2023-06-22T11:20:07;12.05;;;11.03;;
77304;SDS011;66364;52.622;7.746;2023-06-22T11:22:09;11.80;;;10.80;;
77304;SDS011;66364;52.622;7.746;2023-06-22T11:24:09;15.80;;;11.23;;
77304;SDS011;66364;52.622;7.746;2023-06-22T11:26:11;12.35;;;11.18;;
77304;SDS011;66364;52.622;7.746;2023-06-22T11:28:12;12.33;;;11.30;;
77304;SDS011;66364;52.622;7.746;2023-06-22T11:30:13;11.95;;;10.95;;
77304;SDS011;66364;52.622;7.746;2023-06-22T11:32:15;12.95;;;11.80;;
77304;SDS011;66364;52.622;7.746;2023-06-22T11:34:16;12.53;;;11.43;;
77304;SDS011;66364;52.622;7.746;2023-06-22T11:36:17;13.18;;;11.88;;
77304;SDS011;66364;52.622;7.746;2023-06-22T11:38:18;12.68;;;11.48;;
77304;SDS011;66364;52.622;7.746;2023-06-22T11:40:19;12.73;;;11.63;;
77304;SDS011;66364;52.622;7.746;2023-06-22T11:42:20;13.70;;;12.40;;
77304;SDS011;66364;52.622;7.746;2023-06-22T11:44:21;13.32;;;12.03;;
77304;SDS011;66364;52.622;7.746;2023-06-22T11:46:22;13.47;;;12.23;;
77304;SDS011;66364;52.622;7.746;2023-06-22T11:48:26;13.23;;;12.03;;
77304;SDS011;66364;52.622;7.746;2023-06-22T11:50:27;13.18;;;12.03;;
77304;SDS011;66364;52.622;7.746;2023-06-22T11:52:29;13.78;;;12.58;;
77304;SDS011;66364;52.622;7.746;2023-06-22T11:54:30;13.08;;;11.93;;
77304;SDS011;66364;52.622;7.746;2023-06-22T11:56:32;13.53;;;12.37;;
77304;SDS011;66364;52.622;7.746;2023-06-22T11:58:33;14.85;;;13.55;;
77304;SDS011;66364;52.622;7.746;2023-06-22T12:00:35;14.45;;;13.22;;
77304;SDS011;66364;52.622;7.746;2023-06-22T12:02:36;13.50;;;12.30;;
77304;SDS011;66364;52.622;7.746;2023-06-22T12:04:37;12.97;;;11.87;;
77304;SDS011;66364;52.622;7.746;2023-06-22T12:06:38;15.45;;;14.05;;
77304;SDS011;66364;52.622;7.746;2023-06-22T12:08:39;14.37;;;13.17;;